Flight Track Log - Related Links

Times and Time Zones

All times are in EDT time to prevent confusion due to time zone crossing. See the SKW6440 flight status page for this flight to view local times or setup timezone preferences in your user account.

Time Position Orientation Groundspeed Altitude Reporting Facility
EDT Latitude Longitude Course Direction KTS MPH feet Rate Location/Type
Fri 06:30:27 PM 39.9500 -104.6667 37° Northeast 209 241 8,500  Level Denver TRACON
Fri 06:31:21 PM 40.0000 -104.6167 37° Northeast 261 300 9,900 1,900 Climbing Denver TRACON
Fri 06:32:27 PM 40.0833 -104.5667 25° Northeast 306 352 12,300 2,257 Climbing Denver TRACON
Fri 06:33:00 PM 40.2656 -104.5000 North  Level FlightAware Approximate
Fri 06:33:10 PM 40.1417 -104.5242 29° Northeast 306 352 14,000  Level Denver Center
Fri 06:34:00 PM 40.3633 -104.4208 44° Northeast  Level FlightAware Approximate
Fri 06:34:12 PM 40.2222 -104.4708 27° Northeast 323 372 16,500  Level Denver Center
Fri 06:35:00 PM 40.4654 -104.3347 37° Northeast  Level FlightAware Approximate
Fri 06:35:14 PM 40.3036 -104.4158 27° Northeast 333 383 18,200  Level Denver Center
Fri 06:36:16 PM 40.3967 -104.3564 26° Northeast 345 397 20,400 1,887 Climbing Denver Center
Fri 06:37:18 PM 40.4814 -104.2975 28° Northeast 350 403 22,100 1,742 Climbing Denver Center
Fri 06:38:20 PM 40.5789 -104.2328 27° Northeast 364 419 24,000 1,645 Climbing Denver Center
Fri 06:39:22 PM 40.6575 -104.1292 45° Northeast 373 429 25,500 1,355 Climbing Denver Center
Fri 06:40:24 PM 40.7353 -104.0347 43° Northeast 378 435 26,800 1,210 Climbing Denver Center
Fri 06:41:26 PM 40.8142 -103.9333 44° Northeast 390 449 28,000 1,161 Climbing Denver Center
Fri 06:42:28 PM 40.8947 -103.8286 44° Northeast 401 461 29,200 1,113 Climbing Denver Center
Fri 06:43:30 PM 40.9761 -103.7228 44° Northeast 407 468 30,300 976 Climbing Denver Center
Fri 06:44:31 PM 41.0553 -103.6189 45° Northeast 412 474 31,200 976 Climbing Denver Center
Fri 06:45:33 PM 41.1489 -103.4986 44° Northeast 421 484 32,300 1,113 Climbing Denver Center
Fri 06:46:35 PM 41.2281 -103.3942 45° Northeast 421 484 33,500 1,210 Climbing Denver Center
Fri 06:47:37 PM 41.3183 -103.2761 44° Northeast 410 472 34,800 968 Climbing Denver Center
Fri 06:48:39 PM 41.3897 -103.1633 50° Northeast 417 480 35,500 726 Climbing Denver Center
Fri 06:49:41 PM 41.4558 -103.0094 60° Northeast 429 494 36,300 726 Climbing Denver Center
Fri 06:50:43 PM 41.5136 -102.8783 59° Northeast 429 494 37,000 339 Climbing Denver Center
Fri 06:51:45 PM 41.5800 -102.7256 60° Northeast 427 491 37,000  Level Denver Center
Fri 06:52:47 PM 41.6369 -102.5956 60° Northeast 424 488 37,000  Level Denver Center
Fri 06:53:49 PM 41.7011 -102.4444 60° Northeast 420 483 37,000  Level Denver Center
Fri 06:54:51 PM 41.7553 -102.3186 60° Northeast 414 476 37,000  Level Denver Center
Fri 06:55:53 PM 41.8189 -102.1708 60° Northeast 407 468 37,000 242 Level Denver Center
Fri 06:56:55 PM 41.8708 -102.0450 61° Northeast 402 463 37,500 309 Climbing Denver Center
Fri 06:58:09 PM 41.9250 -101.9161 61° Northeast 413 475 37,700 221 Climbing Denver Center
Fri 06:59:11 PM 41.9989 -101.7422 60° Northeast 420 483 38,000 397 Climbing Denver Center
Fri 07:00:25 PM 42.0642 -101.5867 60° Northeast 426 490 38,600 441 Climbing Denver Center
Fri 07:01:27 PM 42.1275 -101.4331 61° Northeast 420 483 39,000 194 Climbing Denver Center
Fri 07:02:29 PM 42.1922 -101.2761 61° Northeast 427 491 39,000  Level Denver Center
Fri 07:03:31 PM 42.2478 -101.1425 61° Northeast 427 491 39,000  Level Denver Center
Fri 07:04:33 PM 42.3119 -100.9828 61° Northeast 432 497 39,000  Level Denver Center
Fri 07:05:35 PM 42.3683 -100.8456 61° Northeast 435 501 39,000  Level Denver Center
Fri 07:06:37 PM 42.4325 -100.6847 62° Northeast 435 501 39,000  Level Denver Center
Fri 07:07:39 PM 42.4883 -100.5478 61° Northeast 433 498 39,000  Level Denver Center
Fri 07:08:41 PM 42.5425 -100.4100 62° Northeast 433 498 39,000  Level Denver Center
Fri 07:09:43 PM 42.6053 -100.2542 61° Northeast 425 489 39,000  Level Denver Center
Fri 07:10:45 PM 42.6592 -100.1189 62° Northeast 424 488 39,000  Level Denver Center
Fri 07:11:47 PM 42.7192 -99.9678 62° Northeast 424 488 39,000  Level Denver Center
Fri 07:12:49 PM 42.7736 -99.8272 62° Northeast 422 486 39,000  Level Denver Center
Fri 07:13:50 PM 42.8164 -99.7181 62° Northeast 415 478 39,000  Level Denver Center
Fri 07:15:02 PM 42.8972 -99.5122 62° Northeast 416 479 39,000  Level Minneapolis Center
Fri 07:16:04 PM 42.9500 -99.3764 62° Northeast 407 468 39,000  Level Minneapolis Center
Fri 07:17:06 PM 43.0031 -99.2369 62° Northeast 412 474 39,000  Level Minneapolis Center
Fri 07:18:08 PM 43.0561 -99.0969 63° Northeast 413 475 39,000  Level Minneapolis Center
Fri 07:19:10 PM 43.1172 -98.9383 62° Northeast 419 482 39,000  Level Minneapolis Center
Fri 07:20:12 PM 43.1706 -98.7944 63° Northeast 422 486 39,000  Level Minneapolis Center
Fri 07:21:14 PM 43.2256 -98.6500 62° Northeast 428 493 39,000  Level Minneapolis Center
Fri 07:22:16 PM 43.2792 -98.5047 63° Northeast 429 494 39,000  Level Minneapolis Center
Fri 07:23:18 PM 43.3436 -98.3322 63° Northeast 425 489 39,000  Level Minneapolis Center
Fri 07:24:20 PM 43.3967 -98.1881 63° Northeast 425 489 39,000  Level Minneapolis Center
Fri 07:25:22 PM 43.4511 -98.0431 63° Northeast 427 491 39,000  Level Minneapolis Center
Fri 07:26:24 PM 43.5028 -97.8983 64° Northeast 425 489 39,000  Level Minneapolis Center
Fri 07:27:26 PM 43.5572 -97.7536 63° Northeast 426 490 39,000  Level Minneapolis Center
Fri 07:28:27 PM 43.6094 -97.6083 64° Northeast 426 490 39,000  Level Minneapolis Center
Fri 07:29:29 PM 43.6619 -97.4617 64° Northeast 426 490 39,000  Level Minneapolis Center
Fri 07:30:31 PM 43.7256 -97.2861 63° Northeast 428 493 39,000  Level Minneapolis Center
Fri 07:31:33 PM 43.7775 -97.1392 64° Northeast 427 491 39,000  Level Minneapolis Center
Fri 07:32:35 PM 43.8300 -96.9919 64° Northeast 429 494 39,000  Level Minneapolis Center
Fri 07:33:37 PM 43.8822 -96.8439 64° Northeast 430 495 39,000  Level Minneapolis Center
Fri 07:34:39 PM 43.9333 -96.6975 64° Northeast 425 489 39,000  Level Minneapolis Center
Fri 07:35:40 PM 43.9847 -96.5506 64° Northeast 425 489 39,000  Level Minneapolis Center
Fri 07:36:42 PM 44.0458 -96.3756 64° Northeast 423 487 39,000  Level Minneapolis Center
Fri 07:37:45 PM 44.0944 -96.2289 65° Northeast 424 488 39,000  Level Minneapolis Center
Fri 07:38:46 PM 44.1447 -96.0894 63° Northeast 422 486 39,000  Level Minneapolis Center
Fri 07:39:48 PM 44.1944 -95.9433 65° Northeast 426 490 39,000  Level Minneapolis Center
Fri 07:40:50 PM 44.2544 -95.7683 64° Northeast 421 484 39,000  Level Minneapolis Center
Fri 07:41:52 PM 44.3044 -95.6200 65° Northeast 424 488 39,000 -927 Level Minneapolis Center
Fri 07:42:53 PM 44.3558 -95.4692 64° Northeast 430 495 37,100 -2,537 Descending Minneapolis Center
Fri 07:43:55 PM 44.4111 -95.3047 65° Northeast 463 533 33,800 -3,290 Descending Minneapolis Center
Fri 07:44:57 PM 44.4639 -95.1428 65° Northeast 461 531 30,300 -3,339 Descending Minneapolis Center
Fri 07:45:59 PM 44.5036 -94.9781 71° East 450 518 26,900 -3,484 Descending Minneapolis Center
Fri 07:47:01 PM 44.5497 -94.7858 71° East 439 505 23,100 -3,317 Descending Minneapolis Center
Fri 07:48:02 PM 44.5847 -94.6331 72° East 420 483 20,100 -2,732 Descending Minneapolis Center
Fri 07:49:04 PM 44.6158 -94.4892 73° East 415 478 17,500 -2,710 Descending Minneapolis Center
Fri 07:50:06 PM 44.6517 -94.3419 71° East 400 460 14,500 -2,758 Descending Minneapolis Center
Fri 07:51:08 PM 44.6839 -94.2031 72° East 372 428 11,800 -1,694 Descending Minneapolis Center
Fri 07:52:10 PM 44.7178 -94.0500 73° East 338 389 11,000 -387 Descending Minneapolis Center
Fri 07:53:12 PM 44.7453 -93.9261 73° East 331 381 11,000  Level Minneapolis Center
Fri 07:54:13 PM 44.7689 -93.8217 72° East 281 323 11,000  Level Minneapolis Center
Fri 07:55:15 PM 44.7914 -93.7197 73° East 273 314 11,000 -339 Level Minneapolis Center
Fri 07:56:17 PM 44.8131 -93.6197 73° East 267 307 10,300 -871 Descending Minneapolis Center
Fri 07:57:19 PM 44.8347 -93.5225 73° East 261 300 9,200 -1,113 Descending Minneapolis Center
Fri 07:58:21 PM 44.8558 -93.4231 73° East 263 303 8,000 -581 Descending Minneapolis Center
Fri 07:59:23 PM 44.8253 -93.3239 113° Southeast 230 265 8,000  Level Minneapolis Center
Fri 08:00:27 PM 44.7958 -93.2528 120° Southeast 211 243 8,000  Level Minneapolis Center
Fri 08:01:29 PM 44.7664 -93.1786 119° Southeast 208 239 8,000 -439 Level Minneapolis Center
Fri 08:02:30 PM 44.7375 -93.1056 119° Southeast 211 243 7,100 -927 Descending Minneapolis Center
Fri 08:03:32 PM 44.7081 -93.0333 120° Southeast 212 244 6,100 -968 Descending Minneapolis Center
Fri 08:04:34 PM 44.6969 -92.9625 102° East 210 242 5,100 -871 Descending Minneapolis Center
Fri 08:05:36 PM 44.7400 -92.9175 37° Northeast 195 224 4,300 -537 Descending Minneapolis Center
Fri 08:06:37 PM 44.7892 -92.9789 318° Northwest 203 234 4,000 -339 Descending Minneapolis Center
Fri 08:07:40 PM 44.8144 -93.0417 300° West 187 215 3,600 -381 Descending Minneapolis Center

Login

Don't have an account? Register now (free) for customized features, flight alerts, and more!